Time;durP1;ratioP1;P1;durP2;ratioP2;P2;SDS_P1;SDS_P2;PMS_P1;PMS_P2;Temp;Humidity;BMP_temperature;BMP_pressure;BME280_temperature;BME280_humidity;BME280_pressure;Samples;Min_cycle;Max_cycle;Signal;HPM_P1;HPM_P2
2023/01/16 00:00:08;;;;;;;;;;;4.00;99.90;4.70;98860.00;;;;336634;28;83391;-84
2023/01/16 00:00:20;;;;;;;;;;;4.00;99.90;4.70;98854.00;;;;341756;28;88999;-85
2023/01/16 00:00:31;;;;;;;;;;;4.00;99.90;4.60;98866.00;;;;340670;28;82491;-84
2023/01/16 00:00:43;;;;;;;;;;;4.10;99.90;4.70;98857.00;;;;333541;29;89241;-85
2023/01/16 00:00:55;;;;;;;;;;;4.00;99.90;4.70;98849.00;;;;344818;28;83451;-85
2023/01/16 00:01:07;;;;;;;;;;;4.00;99.90;4.60;98845.00;;;;341600;28;91447;-85
2023/01/16 00:01:19;;;;;;;;;;;4.00;99.90;4.50;98863.00;;;;335031;29;84067;-85
2023/01/16 00:01:31;;;;;;;;;;;4.00;99.90;4.60;98854.00;;;;344206;28;91273;-85
2023/01/16 00:01:43;;;;;;;;;;;4.00;99.90;4.70;98856.00;;;;343505;28;83362;-85
2023/01/16 00:01:55;;;;;;;;;;;4.00;99.90;4.70;98854.00;;;;336149;28;88701;-85
2023/01/16 00:02:07;;;;;;;;;;;4.00;99.90;4.70;98857.00;;;;344674;28;83545;-85
2023/01/16 00:02:19;;;;;;;;;;;4.00;99.90;4.50;98854.00;;;;342620;28;88532;-85
2023/01/16 00:02:32;;;;;;;;;;;4.00;99.90;4.60;98840.00;;;;342040;28;83427;-85
2023/01/16 00:02:45;;;;;;;;;;;4.00;99.90;4.70;98850.00;;;;344459;28;89234;-85
2023/01/16 00:02:56;;;;;;;;;;;4.00;99.90;4.70;98858.00;;;;344951;28;83212;-85
2023/01/16 00:03:09;;;;;;;;;;;4.00;99.90;4.70;98849.00;;;;333570;29;88206;-85
2023/01/16 00:03:20;;;;;;;;;;;4.00;99.90;4.70;98847.00;;;;335067;28;83499;-85
2023/01/16 00:03:32;;;;;;;;;;;4.00;99.90;4.70;98849.00;;;;341477;28;89464;-85
2023/01/16 00:03:44;;;;;;;;;;;4.00;99.90;4.60;98835.00;;;;343471;28;83497;-85
2023/01/16 00:03:56;;;;;;;;;;;4.00;99.90;4.60;98842.00;;;;335945;28;91689;-85
2023/01/16 00:04:08;;;;;;;;;;;4.00;99.90;4.70;98844.00;;;;342112;28;83385;-85
2023/01/16 00:04:20;;;;;;;;;;;4.00;99.90;4.70;98847.00;;;;341730;28;89574;-85
2023/01/16 00:04:33;;;;;;;;;;;4.00;99.90;4.60;98842.00;;;;335217;29;82614;-85
2023/01/16 00:04:45;;;;;;;;;;;4.00;99.90;4.50;98850.00;;;;341718;28;87952;-85
2023/01/16 00:04:57;;;;;;;;;;;4.00;99.90;4.50;98849.00;;;;343548;28;82420;-84
2023/01/16 00:05:09;;;;;;;;;;;4.00;99.90;4.50;98839.00;;;;340378;28;89253;-85
2023/01/16 00:05:21;;;;;;;;;;;4.00;99.90;4.60;98843.00;;;;336672;28;83342;-84
2023/01/16 00:05:32;;;;;;;;;;;4.00;99.90;4.60;98844.00;;;;342754;28;92147;-84
2023/01/16 00:05:44;;;;;;;;;;;4.00;99.90;4.50;98844.00;;;;335245;28;83555;-85
2023/01/16 00:05:56;;;;;;;;;;;4.00;99.90;4.50;98840.00;;;;334748;29;89642;-84
2023/01/16 00:06:08;;;;;;;;;;;4.00;99.90;4.60;98844.00;;;;343430;28;83319;-85
2023/01/16 00:06:20;;;;;;;;;;;4.00;99.90;4.60;98844.00;;;;343038;28;89127;-85
2023/01/16 00:06:32;;;;;;;;;;;4.00;99.90;4.60;98847.00;;;;339445;28;82584;-84
2023/01/16 00:06:44;;;;;;;;;;;4.00;99.90;4.60;98838.00;;;;340405;28;87592;-85
2023/01/16 00:06:55;;;;;;;;;;;4.00;99.90;4.50;98843.00;;;;344587;28;83459;-85
2023/01/16 00:07:07;;;;;;;;;;;4.00;99.90;4.50;98849.00;;;;343122;28;88035;-84
2023/01/16 00:07:19;;;;;;;;;;;4.00;99.90;4.50;98838.00;;;;341852;28;82434;-84
2023/01/16 00:07:31;;;;;;;;;;;4.00;99.90;4.50;98837.00;;;;341550;28;91836;-85
2023/01/16 00:07:42;;;;;;;;;;;3.90;99.90;4.50;98835.00;;;;343333;28;83429;-85
2023/01/16 00:07:54;;;;;;;;;;;3.90;99.90;4.40;98838.00;;;;334798;28;91449;-85
2023/01/16 00:08:06;;;;;;;;;;;3.90;99.90;4.40;98829.00;;;;343553;28;82333;-85
2023/01/16 00:08:18;;;;;;;;;;;3.90;99.90;4.40;98830.00;;;;340399;28;89041;-85
2023/01/16 00:08:30;;;;;;;;;;;3.90;99.90;4.40;98838.00;;;;333970;29;82348;-85
2023/01/16 00:08:42;;;;;;;;;;;3.90;99.90;4.40;98830.00;;;;334981;29;87797;-85
2023/01/16 00:08:54;;;;;;;;;;;3.90;99.90;4.40;98832.00;;;;342176;28;82263;-85
2023/01/16 00:09:06;;;;;;;;;;;3.90;99.90;4.40;98826.00;;;;340355;28;87648;-85
2023/01/16 00:09:18;;;;;;;;;;;3.90;99.90;4.40;98836.00;;;;341973;28;82591;-85
2023/01/16 00:09:29;;;;;;;;;;;3.90;99.90;4.40;98837.00;;;;340423;28;89575;-85
2023/01/16 00:09:41;;;;;;;;;;;3.90;99.90;4.40;98824.00;;;;342033;28;83406;-85
2023/01/16 00:09:53;;;;;;;;;;;3.90;99.90;4.40;98828.00;;;;342932;28;88656;-85
2023/01/16 00:10:05;;;;;;;;;;;3.90;99.90;4.40;98830.00;;;;333987;29;83427;-85
2023/01/16 00:10:17;;;;;;;;;;;3.90;99.90;4.40;98829.00;;;;340087;28;89031;-85
2023/01/16 00:10:29;;;;;;;;;;;3.90;99.90;4.50;98828.00;;;;341979;28;83520;-85
2023/01/16 00:10:41;;;;;;;;;;;3.90;99.90;4.50;98835.00;;;;342916;28;91504;-85
2023/01/16 00:10:52;;;;;;;;;;;3.90;99.90;4.50;98835.00;;;;342025;28;83494;-84
2023/01/16 00:11:04;;;;;;;;;;;3.90;99.90;4.40;98831.00;;;;341602;28;92313;-85
2023/01/16 00:11:16;;;;;;;;;;;3.90;99.90;4.40;98826.00;;;;342012;28;83436;-85
2023/01/16 00:11:28;;;;;;;;;;;3.90;99.90;4.50;98826.00;;;;343019;28;89126;-85
2023/01/16 00:11:40;;;;;;;;;;;3.90;99.90;4.60;98827.00;;;;335153;29;83474;-84
2023/01/16 00:11:51;;;;;;;;;;;3.90;99.90;4.60;98819.00;;;;341540;28;89061;-85
2023/01/16 00:12:03;;;;;;;;;;;3.90;99.90;4.50;98820.00;;;;342043;28;83305;-85
2023/01/16 00:12:15;;;;;;;;;;;3.90;99.90;4.50;98817.00;;;;334736;29;92252;-85
2023/01/16 00:12:27;;;;;;;;;;;3.90;99.90;4.50;98827.00;;;;335188;29;83367;-84
2023/01/16 00:12:38;;;;;;;;;;;3.90;99.90;4.40;98822.00;;;;343013;28;90114;-85
2023/01/16 00:12:50;;;;;;;;;;;3.80;99.90;4.50;98825.00;;;;343508;28;83422;-85
2023/01/16 00:13:02;;;;;;;;;;;3.90;99.90;4.50;98820.00;;;;338967;28;89664;-84
2023/01/16 00:13:14;;;;;;;;;;;3.90;99.90;4.50;98816.00;;;;333903;29;83534;-85
2023/01/16 00:13:25;;;;;;;;;;;3.90;99.90;4.50;98817.00;;;;340246;28;89110;-85
2023/01/16 00:13:37;;;;;;;;;;;3.80;99.90;4.40;98812.00;;;;342125;28;83484;-85
2023/01/16 00:13:49;;;;;;;;;;;3.90;99.90;4.40;98812.00;;;;341629;28;91239;-85
2023/01/16 00:14:01;;;;;;;;;;;3.90;99.90;4.40;98812.00;;;;342072;28;83380;-85
2023/01/16 00:14:13;;;;;;;;;;;3.90;99.90;4.50;98812.00;;;;341525;28;88618;-85
2023/01/16 00:14:24;;;;;;;;;;;3.90;99.90;4.50;98814.00;;;;341908;28;83438;-85
2023/01/16 00:14:36;;;;;;;;;;;3.90;99.90;4.40;98808.00;;;;343108;28;88665;-85
2023/01/16 00:14:48;;;;;;;;;;;3.90;99.90;4.40;98811.00;;;;336602;28;83351;-85
2023/01/16 00:15:00;;;;;;;;;;;3.90;99.90;4.50;98812.00;;;;341700;28;91392;-85
2023/01/16 00:15:12;;;;;;;;;;;3.90;99.90;4.50;98807.00;;;;341977;28;82621;-85
2023/01/16 00:15:23;;;;;;;;;;;3.90;99.90;4.40;98807.00;;;;336280;28;87672;-84
2023/01/16 00:15:35;;;;;;;;;;;3.90;99.90;4.40;98805.00;;;;343318;28;83248;-84
2023/01/16 00:15:48;;;;;;;;;;;3.80;99.90;4.40;98805.00;;;;340114;28;92597;-84
2023/01/16 00:16:00;;;;;;;;;;;3.90;99.90;4.40;98811.00;;;;340589;28;83597;-85
2023/01/16 00:16:12;;;;;;;;;;;3.90;99.90;4.50;98799.00;;;;341631;28;90861;-85
2023/01/16 00:16:27;;;;;;;;;;;3.80;99.90;4.50;98801.00;;;;332718;29;83406;-85
2023/01/16 00:16:39;;;;;;;;;;;3.80;99.90;4.50;98812.00;;;;341634;28;89013;-85
2023/01/16 00:16:51;;;;;;;;;;;3.90;99.90;4.60;98802.00;;;;342079;28;83545;-85
2023/01/16 00:17:03;;;;;;;;;;;3.90;99.90;4.40;98799.00;;;;332350;29;90477;-84
2023/01/16 00:17:16;;;;;;;;;;;3.90;99.90;4.40;98798.00;;;;340718;28;82373;-85
2023/01/16 00:17:28;;;;;;;;;;;3.90;99.90;4.40;98801.00;;;;340244;28;89449;-85
2023/01/16 00:17:40;;;;;;;;;;;3.90;99.90;4.50;98802.00;;;;339438;28;83450;-85
2023/01/16 00:17:52;;;;;;;;;;;3.90;99.90;4.60;98799.00;;;;340207;28;89995;-84
2023/01/16 00:18:04;;;;;;;;;;;3.80;99.90;4.50;98800.00;;;;342205;28;83338;-84
2023/01/16 00:18:16;;;;;;;;;;;3.90;99.90;4.50;98805.00;;;;341628;28;90685;-85
2023/01/16 00:18:29;;;;;;;;;;;3.80;99.90;4.40;98796.00;;;;343141;28;84440;-85
2023/01/16 00:18:41;;;;;;;;;;;3.90;99.90;4.40;98799.00;;;;343208;28;86847;-85
2023/01/16 00:18:54;;;;;;;;;;;3.80;99.90;4.40;98801.00;;;;342081;28;82598;-85
2023/01/16 00:19:06;;;;;;;;;;;3.80;99.90;4.50;98800.00;;;;340493;28;91290;-84
2023/01/16 00:19:18;;;;;;;;;;;3.90;99.90;4.40;98796.00;;;;343331;28;83489;-84
2023/01/16 00:19:30;;;;;;;;;;;3.90;99.90;4.50;98800.00;;;;336282;28;89525;-85
2023/01/16 00:19:42;;;;;;;;;;;3.80;99.90;4.40;98791.00;;;;342143;28;82638;-84
2023/01/16 00:19:53;;;;;;;;;;;3.80;99.90;4.40;98794.00;;;;343078;28;90082;-85
2023/01/16 00:20:06;;;;;;;;;;;3.80;99.90;4.40;98800.00;;;;343541;28;82504;-84
2023/01/16 00:20:17;;;;;;;;;;;3.80;99.90;4.50;98795.00;;;;333519;29;91598;-84
2023/01/16 00:20:29;;;;;;;;;;;3.80;99.90;4.40;98800.00;;;;340761;28;83513;-85
2023/01/16 00:20:41;;;;;;;;;;;3.80;99.90;4.50;98795.00;;;;343064;28;88872;-85
2023/01/16 00:20:53;;;;;;;;;;;3.80;99.90;4.50;98805.00;;;;344760;28;83417;-84
2023/01/16 00:21:04;;;;;;;;;;;3.80;99.90;4.50;98795.00;;;;341661;28;89489;-85
2023/01/16 00:21:17;;;;;;;;;;;3.80;99.90;4.50;98796.00;;;;341793;28;83457;-84
2023/01/16 00:21:28;;;;;;;;;;;3.90;99.90;4.50;98807.00;;;;343109;28;89242;-84
2023/01/16 00:21:40;;;;;;;;;;;3.80;99.90;4.50;98798.00;;;;335284;29;83841;-85
2023/01/16 00:21:52;;;;;;;;;;;3.90;99.90;4.50;98800.00;;;;341487;28;92986;-84
2023/01/16 00:22:04;;;;;;;;;;;3.90;99.90;4.60;98794.00;;;;340879;28;82439;-84
2023/01/16 00:22:16;;;;;;;;;;;3.90;99.90;4.50;98797.00;;;;341613;28;89455;-85
2023/01/16 00:22:28;;;;;;;;;;;3.90;99.90;4.60;98802.00;;;;334054;28;83472;-85
2023/01/16 00:22:39;;;;;;;;;;;3.90;99.90;4.60;98794.00;;;;340339;28;87892;-85
2023/01/16 00:22:51;;;;;;;;;;;3.90;99.90;4.50;98795.00;;;;340862;28;83355;-84
2023/01/16 00:23:03;;;;;;;;;;;3.90;99.90;4.60;98803.00;;;;339074;28;90852;-85
2023/01/16 00:23:15;;;;;;;;;;;3.90;99.90;4.60;98797.00;;;;335154;28;83435;-85
2023/01/16 00:23:27;;;;;;;;;;;3.90;99.90;4.50;98798.00;;;;341723;28;89447;-85
2023/01/16 00:23:39;;;;;;;;;;;3.90;99.90;4.50;98797.00;;;;343102;28;82449;-85
2023/01/16 00:23:51;;;;;;;;;;;3.90;99.90;4.50;98785.00;;;;343008;28;89808;-85
2023/01/16 00:24:06;;;;;;;;;;;3.90;99.90;4.50;98786.00;;;;336509;28;83448;-85
2023/01/16 00:24:17;;;;;;;;;;;3.90;99.90;4.40;98796.00;;;;336141;28;89105;-85
2023/01/16 00:24:29;;;;;;;;;;;3.90;99.90;4.50;98780.00;;;;342082;28;83260;-85
2023/01/16 00:24:41;;;;;;;;;;;3.90;99.90;4.50;98792.00;;;;341399;28;90335;-85
2023/01/16 00:24:53;;;;;;;;;;;3.90;99.90;4.40;98783.00;;;;340620;28;83493;-85
2023/01/16 00:25:05;;;;;;;;;;;3.90;99.90;4.40;98775.00;;;;333252;29;90469;-84
2023/01/16 00:25:17;;;;;;;;;;;3.90;99.90;4.50;98794.00;;;;340680;28;83446;-85
2023/01/16 00:25:29;;;;;;;;;;;3.90;99.90;4.50;98784.00;;;;341456;28;90596;-85
2023/01/16 00:25:42;;;;;;;;;;;3.90;99.90;4.50;98791.00;;;;336533;28;83434;-85
2023/01/16 00:25:53;;;;;;;;;;;3.90;99.90;4.50;98782.00;;;;341529;28;90570;-84
2023/01/16 00:26:09;;;;;;;;;;;3.90;99.90;4.50;98780.00;;;;343264;28;82598;-85
2023/01/16 00:26:21;;;;;;;;;;;3.90;99.90;4.50;98781.00;;;;341708;28;89229;-85
2023/01/16 00:26:33;;;;;;;;;;;3.90;99.90;4.50;98778.00;;;;336515;28;82650;-85
2023/01/16 00:26:45;;;;;;;;;;;3.90;99.90;4.60;98777.00;;;;341471;28;89637;-85
2023/01/16 00:26:56;;;;;;;;;;;3.90;99.90;4.40;98771.00;;;;343413;28;83099;-84
2023/01/16 00:27:08;;;;;;;;;;;3.90;99.90;4.50;98776.00;;;;341647;28;87746;-85
2023/01/16 00:27:20;;;;;;;;;;;3.90;99.90;4.50;98770.00;;;;343336;28;83524;-84
2023/01/16 00:27:32;;;;;;;;;;;3.90;99.90;4.50;98768.00;;;;341639;28;89307;-85
2023/01/16 00:27:44;;;;;;;;;;;3.90;99.90;4.50;98771.00;;;;342077;28;82462;-84
2023/01/16 00:27:55;;;;;;;;;;;3.90;99.90;4.50;98772.00;;;;344331;28;89749;-85
2023/01/16 00:28:08;;;;;;;;;;;3.90;99.90;4.50;98771.00;;;;344767;28;82484;-85
2023/01/16 00:28:20;;;;;;;;;;;3.90;99.90;4.40;98768.00;;;;344201;28;91019;-84
2023/01/16 00:28:32;;;;;;;;;;;3.90;99.90;4.30;98765.00;;;;344705;28;83380;-85
2023/01/16 00:28:44;;;;;;;;;;;3.90;99.90;4.30;98776.00;;;;342885;28;90604;-85
2023/01/16 00:28:55;;;;;;;;;;;3.80;99.90;4.30;98773.00;;;;339253;28;83511;-85
2023/01/16 00:29:07;;;;;;;;;;;3.90;99.90;4.30;98769.00;;;;340287;28;89086;-83
2023/01/16 00:29:19;;;;;;;;;;;3.80;99.90;4.30;98767.00;;;;337555;28;83663;-84
2023/01/16 00:29:31;;;;;;;;;;;3.80;99.90;4.40;98768.00;;;;343086;28;87950;-85
2023/01/16 00:29:42;;;;;;;;;;;3.80;99.90;4.50;98765.00;;;;341890;28;83286;-85
2023/01/16 00:29:54;;;;;;;;;;;3.80;99.90;4.50;98767.00;;;;342623;28;93297;-85
2023/01/16 00:30:07;;;;;;;;;;;3.80;99.90;4.50;98768.00;;;;336443;28;83544;-85
2023/01/16 00:30:19;;;;;;;;;;;3.80;99.90;4.50;98768.00;;;;341642;28;88377;-85
2023/01/16 00:30:31;;;;;;;;;;;3.80;99.90;4.50;98768.00;;;;343417;28;83308;-85
2023/01/16 00:30:42;;;;;;;;;;;3.80;99.90;4.50;98769.00;;;;333336;29;90605;-85
2023/01/16 00:30:54;;;;;;;;;;;3.90;99.90;4.60;98773.00;;;;340751;28;83396;-85
2023/01/16 00:31:06;;;;;;;;;;;3.80;99.90;4.60;98768.00;;;;341630;28;89130;-84
2023/01/16 00:31:18;;;;;;;;;;;3.80;99.90;4.50;98762.00;;;;336271;28;83474;-85
2023/01/16 00:31:30;;;;;;;;;;;3.90;99.90;4.40;98754.00;;;;341634;28;89236;-85
2023/01/16 00:31:42;;;;;;;;;;;3.90;99.90;4.40;98758.00;;;;339475;28;83453;-85
2023/01/16 00:31:54;;;;;;;;;;;3.80;99.90;4.40;98768.00;;;;333501;29;89269;-85
2023/01/16 00:32:05;;;;;;;;;;;3.80;99.90;4.40;98754.00;;;;335078;28;84005;-85
2023/01/16 00:32:17;;;;;;;;;;;3.80;99.90;4.40;98757.00;;;;334651;29;88258;-84
2023/01/16 00:32:29;;;;;;;;;;;3.80;99.90;4.30;98759.00;;;;333975;29;84144;-85
2023/01/16 00:32:41;;;;;;;;;;;3.80;99.90;4.30;98769.00;;;;332175;28;90476;-85
2023/01/16 00:32:53;;;;;;;;;;;3.80;99.90;4.30;98756.00;;;;335219;28;83404;-85
2023/01/16 00:33:05;;;;;;;;;;;3.80;99.90;4.40;98753.00;;;;336078;28;91574;-85
2023/01/16 00:33:18;;;;;;;;;;;3.80;99.90;4.40;98767.00;;;;341966;28;83506;-84
2023/01/16 00:33:30;;;;;;;;;;;3.80;99.90;4.40;98762.00;;;;341703;28;91226;-84
2023/01/16 00:33:42;;;;;;;;;;;3.80;99.90;4.40;98760.00;;;;336599;28;83585;-85
2023/01/16 00:33:54;;;;;;;;;;;3.80;99.90;4.40;98755.00;;;;341324;28;91924;-85
2023/01/16 00:34:06;;;;;;;;;;;3.80;99.90;4.40;98757.00;;;;343534;28;83193;-85
2023/01/16 00:34:18;;;;;;;;;;;3.80;99.90;4.30;98763.00;;;;336214;28;88368;-85
2023/01/16 00:34:29;;;;;;;;;;;3.80;99.90;4.40;98753.00;;;;342100;28;83444;-84
2023/01/16 00:34:41;;;;;;;;;;;3.80;99.90;4.40;98751.00;;;;340334;28;88874;-84
2023/01/16 00:34:53;;;;;;;;;;;3.80;99.90;4.40;98749.00;;;;343425;28;83238;-85
2023/01/16 00:35:05;;;;;;;;;;;3.80;99.90;4.40;98748.00;;;;342969;28;89169;-85
2023/01/16 00:35:17;;;;;;;;;;;3.80;99.90;4.50;98758.00;;;;341827;28;82665;-84
2023/01/16 00:35:29;;;;;;;;;;;3.80;99.90;4.50;98750.00;;;;336019;28;89650;-85
2023/01/16 00:35:41;;;;;;;;;;;3.80;99.90;4.40;98756.00;;;;343297;28;83360;-85
2023/01/16 00:35:52;;;;;;;;;;;3.80;99.90;4.30;98750.00;;;;344325;28;89767;-84
2023/01/16 00:36:04;;;;;;;;;;;3.80;99.90;4.30;98746.00;;;;336523;28;83598;-85
2023/01/16 00:36:16;;;;;;;;;;;3.70;99.90;4.40;98756.00;;;;341618;28;89246;-84
2023/01/16 00:36:28;;;;;;;;;;;3.80;99.90;4.40;98753.00;;;;343163;28;83625;-85
2023/01/16 00:36:40;;;;;;;;;;;3.80;99.90;4.30;98751.00;;;;336215;28;88167;-85
2023/01/16 00:36:52;;;;;;;;;;;3.70;99.90;4.30;98749.00;;;;342186;28;83349;-85
2023/01/16 00:37:04;;;;;;;;;;;3.70;99.90;4.40;98739.00;;;;343095;28;88394;-85
2023/01/16 00:37:16;;;;;;;;;;;3.70;99.90;4.50;98755.00;;;;343454;28;82554;-85
2023/01/16 00:37:27;;;;;;;;;;;3.70;99.90;4.40;98735.00;;;;341820;28;88035;-84
2023/01/16 00:37:39;;;;;;;;;;;3.70;99.90;4.40;98747.00;;;;342179;28;82442;-85
2023/01/16 00:37:51;;;;;;;;;;;3.70;99.90;4.40;98741.00;;;;341708;28;90039;-85
2023/01/16 00:38:03;;;;;;;;;;;3.70;99.90;4.40;98747.00;;;;334104;29;83388;-85
2023/01/16 00:38:15;;;;;;;;;;;3.70;99.90;4.30;98751.00;;;;340346;28;90901;-84
2023/01/16 00:38:27;;;;;;;;;;;3.70;99.90;4.30;98745.00;;;;341944;28;83328;-85
2023/01/16 00:38:39;;;;;;;;;;;3.80;99.90;4.30;98748.00;;;;343075;28;88156;-85
2023/01/16 00:38:51;;;;;;;;;;;3.70;99.90;4.30;98745.00;;;;343283;28;83285;-85
2023/01/16 00:39:02;;;;;;;;;;;3.70;99.90;4.30;98745.00;;;;336294;28;87584;-85
2023/01/16 00:39:14;;;;;;;;;;;3.70;99.90;4.30;98739.00;;;;335325;29;82372;-84
2023/01/16 00:39:26;;;;;;;;;;;3.70;99.90;4.30;98748.00;;;;341496;28;90705;-85
2023/01/16 00:39:39;;;;;;;;;;;3.70;99.90;4.30;98748.00;;;;342141;28;83417;-84
2023/01/16 00:39:54;;;;;;;;;;;3.70;99.90;4.30;98748.00;;;;333498;29;90418;-84
2023/01/16 00:40:06;;;;;;;;;;;3.70;99.90;4.20;98748.00;;;;343456;28;83384;-83
2023/01/16 00:40:18;;;;;;;;;;;3.70;99.90;4.30;98753.00;;;;342937;28;89133;-85
2023/01/16 00:40:29;;;;;;;;;;;3.70;99.90;4.20;98744.00;;;;343212;28;82643;-84
2023/01/16 00:40:41;;;;;;;;;;;3.70;99.90;4.20;98752.00;;;;341343;28;89406;-84
2023/01/16 00:40:53;;;;;;;;;;;3.70;99.90;4.30;98746.00;;;;344681;28;82350;-85
2023/01/16 00:41:05;;;;;;;;;;;3.70;99.90;4.30;98740.00;;;;345684;28;88749;-84
2023/01/16 00:41:16;;;;;;;;;;;3.70;99.90;4.30;98742.00;;;;342024;28;82502;-85
2023/01/16 00:41:28;;;;;;;;;;;3.70;99.90;4.20;98746.00;;;;337010;28;90522;-84
2023/01/16 00:41:40;;;;;;;;;;;3.70;99.90;4.20;98743.00;;;;344544;28;83498;-85
2023/01/16 00:41:52;;;;;;;;;;;3.70;99.90;4.30;98742.00;;;;341589;28;89213;-85
2023/01/16 00:42:04;;;;;;;;;;;3.70;99.90;4.20;98739.00;;;;344892;28;83361;-86
2023/01/16 00:42:16;;;;;;;;;;;3.70;99.90;4.20;98739.00;;;;334742;29;89515;-84
2023/01/16 00:42:27;;;;;;;;;;;3.60;99.90;4.20;98738.00;;;;334831;29;82294;-85
2023/01/16 00:42:39;;;;;;;;;;;3.70;99.90;4.20;98744.00;;;;344371;28;89200;-85
2023/01/16 00:42:51;;;;;;;;;;;3.60;99.90;4.30;98735.00;;;;344573;28;83518;-85
2023/01/16 00:43:03;;;;;;;;;;;3.60;99.90;4.30;98735.00;;;;343135;28;87998;-84
2023/01/16 00:43:15;;;;;;;;;;;3.60;99.90;4.30;98734.00;;;;336439;28;83299;-85
2023/01/16 00:43:26;;;;;;;;;;;3.70;99.90;4.30;98736.00;;;;336214;28;88956;-85
2023/01/16 00:43:38;;;;;;;;;;;3.70;99.90;4.20;98727.00;;;;343512;28;82252;-85
2023/01/16 00:43:50;;;;;;;;;;;3.60;99.90;4.20;98729.00;;;;342785;28;90082;-85
2023/01/16 00:44:02;;;;;;;;;;;3.60;99.90;4.20;98727.00;;;;335302;29;82528;-84
2023/01/16 00:44:14;;;;;;;;;;;3.60;99.90;4.30;98728.00;;;;341575;28;89242;-85
2023/01/16 00:44:25;;;;;;;;;;;3.70;99.90;4.30;98722.00;;;;342084;28;82464;-85
2023/01/16 00:44:37;;;;;;;;;;;3.70;99.90;4.30;98721.00;;;;342753;28;89897;-85
2023/01/16 00:44:49;;;;;;;;;;;3.70;99.90;4.30;98721.00;;;;335197;28;83600;-85
2023/01/16 00:45:01;;;;;;;;;;;3.60;99.90;4.30;98721.00;;;;343044;28;89085;-85
2023/01/16 00:45:13;;;;;;;;;;;3.70;99.90;4.20;98718.00;;;;343309;28;83479;-85
2023/01/16 00:45:24;;;;;;;;;;;3.60;99.90;4.30;98723.00;;;;336136;28;91339;-85
2023/01/16 00:45:36;;;;;;;;;;;3.60;99.90;4.30;98721.00;;;;334957;29;83324;-85
2023/01/16 00:45:49;;;;;;;;;;;3.70;99.90;4.30;98721.00;;;;334711;29;90533;-85
2023/01/16 00:46:00;;;;;;;;;;;3.70;99.90;4.30;98718.00;;;;343443;28;83361;-85
2023/01/16 00:46:12;;;;;;;;;;;3.70;99.90;4.30;98717.00;;;;343052;28;87665;-85
2023/01/16 00:46:25;;;;;;;;;;;3.70;99.90;4.30;98720.00;;;;337884;28;82461;-84
2023/01/16 00:46:37;;;;;;;;;;;3.70;99.90;4.30;98723.00;;;;344312;28;90718;-85
2023/01/16 00:46:49;;;;;;;;;;;3.70;99.90;4.20;98723.00;;;;344531;28;83485;-85
2023/01/16 00:47:01;;;;;;;;;;;3.70;99.90;4.30;98726.00;;;;334920;29;89437;-85
2023/01/16 00:47:13;;;;;;;;;;;3.70;99.90;4.30;98721.00;;;;341999;28;83319;-85
2023/01/16 00:47:25;;;;;;;;;;;3.70;99.90;4.30;98719.00;;;;342794;28;90968;-85
2023/01/16 00:47:37;;;;;;;;;;;3.70;99.90;4.30;98718.00;;;;337896;28;83474;-85
2023/01/16 00:47:49;;;;;;;;;;;3.70;99.90;4.30;98719.00;;;;342834;28;89411;-84
2023/01/16 00:48:00;;;;;;;;;;;3.70;99.90;4.20;98713.00;;;;343439;28;83391;-85
2023/01/16 00:48:13;;;;;;;;;;;3.70;99.90;4.20;98714.00;;;;343023;28;89427;-85
2023/01/16 00:48:25;;;;;;;;;;;3.70;99.90;4.30;98713.00;;;;336465;28;83648;-85
2023/01/16 00:48:37;;;;;;;;;;;3.70;99.90;4.30;98713.00;;;;341572;28;89062;-85
2023/01/16 00:48:48;;;;;;;;;;;3.60;99.90;4.20;98704.00;;;;343230;28;83436;-85
2023/01/16 00:49:00;;;;;;;;;;;3.60;99.90;4.20;98706.00;;;;341728;28;88541;-85
2023/01/16 00:49:12;;;;;;;;;;;3.60;99.90;4.20;98708.00;;;;336477;28;83375;-84
2023/01/16 00:49:24;;;;;;;;;;;3.60;99.90;4.20;98715.00;;;;335912;28;90655;-85
2023/01/16 00:49:35;;;;;;;;;;;3.60;99.90;4.20;98702.00;;;;335007;29;83107;-85
2023/01/16 00:49:47;;;;;;;;;;;3.60;99.90;4.20;98703.00;;;;342941;28;89705;-85
2023/01/16 00:49:59;;;;;;;;;;;3.60;99.90;4.30;98704.00;;;;344727;28;83509;-85
2023/01/16 00:50:11;;;;;;;;;;;3.60;99.90;4.30;98707.00;;;;344059;28;90984;-84
2023/01/16 00:50:23;;;;;;;;;;;3.70;99.90;4.30;98698.00;;;;335288;29;83324;-85
2023/01/16 00:50:35;;;;;;;;;;;3.60;99.90;4.20;98702.00;;;;343937;28;91056;-85
2023/01/16 00:50:46;;;;;;;;;;;3.60;99.90;4.30;98696.00;;;;344853;28;83298;-85
2023/01/16 00:50:58;;;;;;;;;;;3.60;99.90;4.40;98697.00;;;;337458;28;91406;-85
2023/01/16 00:51:10;;;;;;;;;;;3.70;99.90;4.30;98694.00;;;;343412;28;82346;-84
2023/01/16 00:51:22;;;;;;;;;;;3.60;99.90;4.30;98696.00;;;;342937;28;91204;-85
2023/01/16 00:51:34;;;;;;;;;;;3.60;99.90;4.30;98686.00;;;;335109;29;82557;-85
2023/01/16 00:51:45;;;;;;;;;;;3.70;99.90;4.30;98702.00;;;;342685;28;91250;-84
2023/01/16 00:51:57;;;;;;;;;;;3.60;99.90;4.30;98697.00;;;;344763;28;83386;-85
2023/01/16 00:52:09;;;;;;;;;;;3.60;99.90;4.20;98695.00;;;;344404;28;90161;-84
2023/01/16 00:52:22;;;;;;;;;;;3.70;99.90;4.30;98694.00;;;;344726;28;83433;-84
2023/01/16 00:52:33;;;;;;;;;;;3.70;99.90;4.40;98691.00;;;;344291;28;88311;-85
2023/01/16 00:52:45;;;;;;;;;;;3.60;99.90;4.30;98692.00;;;;343173;28;83406;-84
2023/01/16 00:52:57;;;;;;;;;;;3.60;99.90;4.30;98683.00;;;;344271;28;90460;-85
2023/01/16 00:53:09;;;;;;;;;;;3.60;99.90;4.40;98682.00;;;;344824;28;82393;-85
2023/01/16 00:53:20;;;;;;;;;;;3.60;99.90;4.30;98684.00;;;;342935;28;89012;-85
2023/01/16 00:53:32;;;;;;;;;;;3.70;99.90;4.30;98679.00;;;;337869;28;83358;-85
2023/01/16 00:53:44;;;;;;;;;;;3.70;99.90;4.20;98675.00;;;;338586;28;90023;-84
2023/01/16 00:53:56;;;;;;;;;;;3.60;99.90;4.30;98681.00;;;;339113;28;83386;-85
2023/01/16 00:54:07;;;;;;;;;;;3.60;99.90;4.30;98680.00;;;;336290;28;88665;-85
2023/01/16 00:54:19;;;;;;;;;;;3.60;99.90;4.30;98673.00;;;;343361;28;83500;-85
2023/01/16 00:54:31;;;;;;;;;;;3.60;99.90;4.30;98679.00;;;;343057;28;88861;-85
2023/01/16 00:54:43;;;;;;;;;;;3.60;99.90;4.40;98671.00;;;;342014;28;82326;-85
2023/01/16 00:54:54;;;;;;;;;;;3.70;99.90;4.30;98681.00;;;;334929;29;87667;-85
2023/01/16 00:55:06;;;;;;;;;;;3.60;99.90;4.20;98681.00;;;;336558;28;83296;-85
2023/01/16 00:55:18;;;;;;;;;;;3.70;99.90;4.20;98676.00;;;;336049;28;87729;-85
2023/01/16 00:55:32;;;;;;;;;;;3.60;99.90;4.20;98680.00;;;;343483;28;82462;-85
2023/01/16 00:55:44;;;;;;;;;;;3.60;99.90;4.30;98679.00;;;;343912;28;91898;-85
2023/01/16 00:55:56;;;;;;;;;;;3.60;99.90;4.30;98674.00;;;;335247;29;83225;-85
2023/01/16 00:56:08;;;;;;;;;;;3.60;99.90;4.30;98676.00;;;;336022;28;87555;-85
2023/01/16 00:56:19;;;;;;;;;;;3.70;99.90;4.30;98671.00;;;;335299;29;83360;-85
2023/01/16 00:56:31;;;;;;;;;;;3.60;99.90;4.30;98667.00;;;;343018;28;88167;-85
2023/01/16 00:56:43;;;;;;;;;;;3.60;99.90;4.30;98665.00;;;;343388;28;83501;-85
2023/01/16 00:56:55;;;;;;;;;;;3.60;99.90;4.30;98670.00;;;;344400;28;88985;-85
2023/01/16 00:57:07;;;;;;;;;;;3.60;99.90;4.30;98672.00;;;;337981;28;82376;-84
2023/01/16 00:57:19;;;;;;;;;;;3.60;99.90;4.20;98675.00;;;;345484;28;90719;-85
2023/01/16 00:57:31;;;;;;;;;;;3.60;99.90;4.20;98664.00;;;;343493;28;83334;-85
2023/01/16 00:57:43;;;;;;;;;;;3.60;99.90;4.30;98665.00;;;;335965;28;90468;-85
2023/01/16 00:57:55;;;;;;;;;;;3.60;99.90;4.20;98668.00;;;;339123;28;83507;-85
2023/01/16 00:58:10;;;;;;;;;;;3.70;99.90;4.30;98663.00;;;;338844;28;88225;-85
2023/01/16 00:58:22;;;;;;;;;;;3.60;99.90;4.30;98666.00;;;;338909;28;83348;-84
2023/01/16 00:58:34;;;;;;;;;;;3.60;99.90;4.20;98671.00;;;;342903;28;89126;-85
2023/01/16 00:58:46;;;;;;;;;;;3.70;99.90;4.20;98669.00;;;;342011;28;83459;-84
2023/01/16 00:58:58;;;;;;;;;;;3.60;99.90;4.10;98669.00;;;;334799;29;89553;-85
2023/01/16 00:59:10;;;;;;;;;;;3.60;99.90;4.10;98665.00;;;;344771;28;82391;-85
2023/01/16 00:59:22;;;;;;;;;;;3.60;99.90;4.10;98670.00;;;;343088;28;86597;-85
2023/01/16 00:59:34;;;;;;;;;;;3.60;99.90;4.10;98675.00;;;;335247;29;83531;-84
2023/01/16 00:59:45;;;;;;;;;;;3.60;99.90;4.20;98673.00;;;;341509;28;90434;-85
2023/01/16 00:59:57;;;;;;;;;;;3.60;99.90;4.20;98674.00;;;;344509;28;83509;-85
2023/01/16 01:00:09;;;;;;;;;;;3.60;99.90;4.20;98678.00;;;;334786;29;91660;-85
2023/01/16 01:00:22;;;;;;;;;;;3.60;99.90;4.10;98670.00;;;;343479;28;83355;-85
2023/01/16 01:00:34;;;;;;;;;;;3.60;99.90;4.20;98675.00;;;;345410;28;91617;-84
2023/01/16 01:00:46;;;;;;;;;;;3.60;99.90;4.10;98669.00;;;;336592;28;82468;-85